sensor_id;sensor_type;location;lat;lon;timestamp;temperature;humidity
39401;DHT22;54391;50.000;7.360;2023-07-13T00:01:52;15.80;1.00
39401;DHT22;54391;50.000;7.360;2023-07-13T00:04:21;15.80;1.00
39401;DHT22;54391;50.000;7.360;2023-07-13T00:06:50;15.90;1.00
39401;DHT22;54391;50.000;7.360;2023-07-13T00:09:17;15.90;1.00
39401;DHT22;54391;50.000;7.360;2023-07-13T00:11:45;15.80;1.00
39401;DHT22;54391;50.000;7.360;2023-07-13T00:14:13;15.60;1.00
39401;DHT22;54391;50.000;7.360;2023-07-13T00:19:10;15.80;1.00
39401;DHT22;54391;50.000;7.360;2023-07-13T00:24:07;16.10;1.00
39401;DHT22;54391;50.000;7.360;2023-07-13T00:26:34;16.20;1.00
39401;DHT22;54391;50.000;7.360;2023-07-13T00:29:01;16.20;1.00
39401;DHT22;54391;50.000;7.360;2023-07-13T00:36:25;16.10;1.00
39401;DHT22;54391;50.000;7.360;2023-07-13T00:38:52;16.00;1.00
39401;DHT22;54391;50.000;7.360;2023-07-13T00:43:48;15.50;1.00
39401;DHT22;54391;50.000;7.360;2023-07-13T00:46:19;15.30;1.00
39401;DHT22;54391;50.000;7.360;2023-07-13T00:48:48;15.20;1.00
39401;DHT22;54391;50.000;7.360;2023-07-13T00:51:19;15.10;1.00
39401;DHT22;54391;50.000;7.360;2023-07-13T00:53:46;15.00;1.00
39401;DHT22;54391;50.000;7.360;2023-07-13T00:56:14;15.20;1.00
39401;DHT22;54391;50.000;7.360;2023-07-13T00:58:45;14.90;1.00
39401;DHT22;54391;50.000;7.360;2023-07-13T01:01:12;14.80;1.00
39401;DHT22;54391;50.000;7.360;2023-07-13T01:03:40;14.70;1.00
39401;DHT22;54391;50.000;7.360;2023-07-13T01:06:07;14.70;1.00
39401;DHT22;54391;50.000;7.360;2023-07-13T01:13:30;14.50;1.00
39401;DHT22;54391;50.000;7.360;2023-07-13T01:16:02;14.50;1.00
39401;DHT22;54391;50.000;7.360;2023-07-13T01:18:31;14.60;1.00
39401;DHT22;54391;50.000;7.360;2023-07-13T01:21:03;14.70;1.00
39401;DHT22;54391;50.000;7.360;2023-07-13T01:23:31;14.70;1.00
39401;DHT22;54391;50.000;7.360;2023-07-13T01:25:59;14.70;1.00
39401;DHT22;54391;50.000;7.360;2023-07-13T01:28:27;14.60;1.00
39401;DHT22;54391;50.000;7.360;2023-07-13T01:30:57;14.60;1.00
39401;DHT22;54391;50.000;7.360;2023-07-13T01:33:25;14.60;1.00
39401;DHT22;54391;50.000;7.360;2023-07-13T01:35:52;14.60;1.00
39401;DHT22;54391;50.000;7.360;2023-07-13T01:38:23;14.60;1.00
39401;DHT22;54391;50.000;7.360;2023-07-13T01:40:50;14.60;1.00
39401;DHT22;54391;50.000;7.360;2023-07-13T01:43:17;14.60;1.00
39401;DHT22;54391;50.000;7.360;2023-07-13T01:45:45;14.60;1.00
39401;DHT22;54391;50.000;7.360;2023-07-13T01:50:41;14.50;1.00
39401;DHT22;54391;50.000;7.360;2023-07-13T01:53:08;14.50;1.00
39401;DHT22;54391;50.000;7.360;2023-07-13T01:55:37;14.50;1.00
39401;DHT22;54391;50.000;7.360;2023-07-13T01:58:04;14.50;1.00
39401;DHT22;54391;50.000;7.360;2023-07-13T02:00:32;14.60;1.00
39401;DHT22;54391;50.000;7.360;2023-07-13T02:03:01;14.60;1.00
39401;DHT22;54391;50.000;7.360;2023-07-13T02:05:29;14.60;1.00
39401;DHT22;54391;50.000;7.360;2023-07-13T02:07:56;14.60;1.00
39401;DHT22;54391;50.000;7.360;2023-07-13T02:10:24;14.50;1.00
39401;DHT22;54391;50.000;7.360;2023-07-13T02:17:48;14.50;1.00
39401;DHT22;54391;50.000;7.360;2023-07-13T02:20:15;14.50;1.00
39401;DHT22;54391;50.000;7.360;2023-07-13T02:25:10;14.50;1.00
39401;DHT22;54391;50.000;7.360;2023-07-13T02:27:37;14.50;1.00
39401;DHT22;54391;50.000;7.360;2023-07-13T02:30:07;14.40;1.00
39401;DHT22;54391;50.000;7.360;2023-07-13T02:32:34;14.40;1.00
39401;DHT22;54391;50.000;7.360;2023-07-13T02:39:56;14.40;1.00
39401;DHT22;54391;50.000;7.360;2023-07-13T02:49:47;14.10;1.00
39401;DHT22;54391;50.000;7.360;2023-07-13T02:52:14;14.00;1.00
39401;DHT22;54391;50.000;7.360;2023-07-13T02:59:37;13.70;1.00
39401;DHT22;54391;50.000;7.360;2023-07-13T03:02:04;13.60;1.30
39401;DHT22;54391;50.000;7.360;2023-07-13T03:04:35;13.70;1.30
39401;DHT22;54391;50.000;7.360;2023-07-13T03:07:03;13.70;1.90
39401;DHT22;54391;50.000;7.360;2023-07-13T03:09:35;13.70;2.60
39401;DHT22;54391;50.000;7.360;2023-07-13T03:12:05;13.60;3.10
39401;DHT22;54391;50.000;7.360;2023-07-13T03:22:04;13.40;5.10
39401;DHT22;54391;50.000;7.360;2023-07-13T03:24:33;13.40;5.00
39401;DHT22;54391;50.000;7.360;2023-07-13T03:27:03;13.50;5.10
39401;DHT22;54391;50.000;7.360;2023-07-13T03:29:32;13.50;5.00
39401;DHT22;54391;50.000;7.360;2023-07-13T03:31:59;13.70;3.50
39401;DHT22;54391;50.000;7.360;2023-07-13T03:34:26;13.80;2.50
39401;DHT22;54391;50.000;7.360;2023-07-13T03:49:21;13.90;1.10
39401;DHT22;54391;50.000;7.360;2023-07-13T03:56:44;14.20;1.00
39401;DHT22;54391;50.000;7.360;2023-07-13T04:01:39;14.20;1.00
39401;DHT22;54391;50.000;7.360;2023-07-13T04:09:02;14.40;1.00
39401;DHT22;54391;50.000;7.360;2023-07-13T04:11:33;14.40;1.00
39401;DHT22;54391;50.000;7.360;2023-07-13T04:16:29;14.50;1.00
39401;DHT22;54391;50.000;7.360;2023-07-13T04:18:56;14.50;1.00
39401;DHT22;54391;50.000;7.360;2023-07-13T04:21:26;14.60;1.00
39401;DHT22;54391;50.000;7.360;2023-07-13T04:23:53;14.60;1.00
39401;DHT22;54391;50.000;7.360;2023-07-13T04:31:17;14.40;1.00
39401;DHT22;54391;50.000;7.360;2023-07-13T04:41:08;14.20;1.00
39401;DHT22;54391;50.000;7.360;2023-07-13T04:43:35;14.10;1.00
39401;DHT22;54391;50.000;7.360;2023-07-13T04:46:06;14.20;1.00
39401;DHT22;54391;50.000;7.360;2023-07-13T04:51:01;14.30;1.00
39401;DHT22;54391;50.000;7.360;2023-07-13T04:53:29;14.20;1.00
39401;DHT22;54391;50.000;7.360;2023-07-13T04:55:58;14.30;1.00
39401;DHT22;54391;50.000;7.360;2023-07-13T04:58:25;14.30;1.00
39401;DHT22;54391;50.000;7.360;2023-07-13T05:00:53;14.30;1.00
39401;DHT22;54391;50.000;7.360;2023-07-13T05:05:56;14.40;1.00
39401;DHT22;54391;50.000;7.360;2023-07-13T05:15:52;14.60;1.00
39401;DHT22;54391;50.000;7.360;2023-07-13T05:20:57;14.60;1.00
39401;DHT22;54391;50.000;7.360;2023-07-13T05:25:52;14.90;1.00
39401;DHT22;54391;50.000;7.360;2023-07-13T05:28:20;15.00;1.00
39401;DHT22;54391;50.000;7.360;2023-07-13T05:30:47;15.00;1.00
39401;DHT22;54391;50.000;7.360;2023-07-13T05:40:38;15.30;1.00
39401;DHT22;54391;50.000;7.360;2023-07-13T05:43:05;15.40;1.00
39401;DHT22;54391;50.000;7.360;2023-07-13T05:45:32;15.50;1.00
39401;DHT22;54391;50.000;7.360;2023-07-13T05:48:00;15.70;1.00
39401;DHT22;54391;50.000;7.360;2023-07-13T05:55:23;16.40;1.00
39401;DHT22;54391;50.000;7.360;2023-07-13T06:00:18;17.00;1.00
39401;DHT22;54391;50.000;7.360;2023-07-13T06:05:12;17.60;1.00
39401;DHT22;54391;50.000;7.360;2023-07-13T06:07:41;17.80;1.00
39401;DHT22;54391;50.000;7.360;2023-07-13T06:10:10;18.10;1.00
39401;DHT22;54391;50.000;7.360;2023-07-13T06:15:06;18.40;1.00
39401;DHT22;54391;50.000;7.360;2023-07-13T06:20:00;19.00;1.00
39401;DHT22;54391;50.000;7.360;2023-07-13T06:22:28;19.00;1.00
39401;DHT22;54391;50.000;7.360;2023-07-13T06:27:24;19.10;1.00
39401;DHT22;54391;50.000;7.360;2023-07-13T06:29:51;19.10;1.00
39401;DHT22;54391;50.000;7.360;2023-07-13T06:37:12;19.30;1.00
39401;DHT22;54391;50.000;7.360;2023-07-13T06:39:40;19.10;1.00
39401;DHT22;54391;50.000;7.360;2023-07-13T06:42:07;19.00;1.00
39401;DHT22;54391;50.000;7.360;2023-07-13T06:47:03;19.60;1.00
39401;DHT22;54391;50.000;7.360;2023-07-13T06:49:30;19.80;1.00
39401;DHT22;54391;50.000;7.360;2023-07-13T06:51:58;19.80;1.00
39401;DHT22;54391;50.000;7.360;2023-07-13T06:59:20;20.40;1.00
39401;DHT22;54391;50.000;7.360;2023-07-13T07:06:43;20.50;1.00
39401;DHT22;54391;50.000;7.360;2023-07-13T07:09:11;20.40;1.00
39401;DHT22;54391;50.000;7.360;2023-07-13T07:11:39;20.10;1.00
39401;DHT22;54391;50.000;7.360;2023-07-13T07:14:07;20.00;1.00
39401;DHT22;54391;50.000;7.360;2023-07-13T07:21:31;20.60;1.00
39401;DHT22;54391;50.000;7.360;2023-07-13T07:23:58;20.80;1.00
39401;DHT22;54391;50.000;7.360;2023-07-13T07:41:13;21.00;1.00
39401;DHT22;54391;50.000;7.360;2023-07-13T07:46:07;21.40;1.00
39401;DHT22;54391;50.000;7.360;2023-07-13T07:51:02;21.20;1.00
39401;DHT22;54391;50.000;7.360;2023-07-13T07:55:58;21.60;1.00
39401;DHT22;54391;50.000;7.360;2023-07-13T08:00:52;21.10;1.00
39401;DHT22;54391;50.000;7.360;2023-07-13T08:08:15;20.60;1.00
39401;DHT22;54391;50.000;7.360;2023-07-13T08:15:38;20.50;1.00
39401;DHT22;54391;50.000;7.360;2023-07-13T08:20:37;20.70;1.00
39401;DHT22;54391;50.000;7.360;2023-07-13T08:23:04;21.40;1.00
39401;DHT22;54391;50.000;7.360;2023-07-13T08:25:31;21.70;1.00
39401;DHT22;54391;50.000;7.360;2023-07-13T08:28:00;21.80;1.00
39401;DHT22;54391;50.000;7.360;2023-07-13T08:32:55;21.70;1.00
39401;DHT22;54391;50.000;7.360;2023-07-13T08:35:22;21.80;1.00
39401;DHT22;54391;50.000;7.360;2023-07-13T08:37:51;21.80;1.00
39401;DHT22;54391;50.000;7.360;2023-07-13T08:40:20;21.80;1.00
39401;DHT22;54391;50.000;7.360;2023-07-13T08:42:54;21.80;1.00
39401;DHT22;54391;50.000;7.360;2023-07-13T08:45:24;22.10;1.00
39401;DHT22;54391;50.000;7.360;2023-07-13T08:47:58;21.40;1.00
39401;DHT22;54391;50.000;7.360;2023-07-13T08:50:31;21.30;1.00
39401;DHT22;54391;50.000;7.360;2023-07-13T08:53:01;21.50;1.00
39401;DHT22;54391;50.000;7.360;2023-07-13T08:55:33;21.70;1.00
39401;DHT22;54391;50.000;7.360;2023-07-13T08:58:09;21.60;1.00
39401;DHT22;54391;50.000;7.360;2023-07-13T09:00:44;21.60;1.00
39401;DHT22;54391;50.000;7.360;2023-07-13T09:03:19;22.00;1.00
39401;DHT22;54391;50.000;7.360;2023-07-13T09:05:51;22.10;1.00
39401;DHT22;54391;50.000;7.360;2023-07-13T09:08:36;22.20;1.00
39401;DHT22;54391;50.000;7.360;2023-07-13T09:11:14;22.00;1.00
39401;DHT22;54391;50.000;7.360;2023-07-13T09:14:00;21.80;1.00
39401;DHT22;54391;50.000;7.360;2023-07-13T09:16:31;22.50;1.00
39401;DHT22;54391;50.000;7.360;2023-07-13T09:19:04;22.90;1.00
39401;DHT22;54391;50.000;7.360;2023-07-13T09:21:34;23.60;1.00
39401;DHT22;54391;50.000;7.360;2023-07-13T09:24:22;23.90;1.00
39401;DHT22;54391;50.000;7.360;2023-07-13T09:26:54;24.20;1.00
39401;DHT22;54391;50.000;7.360;2023-07-13T09:29:27;24.20;1.00
39401;DHT22;54391;50.000;7.360;2023-07-13T09:32:00;23.70;1.00
39401;DHT22;54391;50.000;7.360;2023-07-13T09:34:28;24.00;1.00
39401;DHT22;54391;50.000;7.360;2023-07-13T09:36:57;24.00;1.00
39401;DHT22;54391;50.000;7.360;2023-07-13T09:39:27;24.30;1.00
39401;DHT22;54391;50.000;7.360;2023-07-13T09:42:03;24.00;1.00
39401;DHT22;54391;50.000;7.360;2023-07-13T09:44:36;23.80;1.00
39401;DHT22;54391;50.000;7.360;2023-07-13T09:47:16;23.90;1.00
39401;DHT22;54391;50.000;7.360;2023-07-13T09:52:14;24.50;1.00
39401;DHT22;54391;50.000;7.360;2023-07-13T09:54:45;24.60;1.00
39401;DHT22;54391;50.000;7.360;2023-07-13T09:57:16;24.30;1.00
39401;DHT22;54391;50.000;7.360;2023-07-13T09:59:45;23.40;1.00
39401;DHT22;54391;50.000;7.360;2023-07-13T10:02:25;23.40;1.00
39401;DHT22;54391;50.000;7.360;2023-07-13T10:04:56;22.90;1.00
39401;DHT22;54391;50.000;7.360;2023-07-13T10:09:52;22.60;1.00
39401;DHT22;54391;50.000;7.360;2023-07-13T10:12:20;23.70;1.00
39401;DHT22;54391;50.000;7.360;2023-07-13T10:14:51;24.60;1.00
39401;DHT22;54391;50.000;7.360;2023-07-13T10:17:29;24.00;1.00
39401;DHT22;54391;50.000;7.360;2023-07-13T10:19:59;23.80;1.00
39401;DHT22;54391;50.000;7.360;2023-07-13T10:22:37;23.50;1.00
39401;DHT22;54391;50.000;7.360;2023-07-13T10:25:15;23.90;1.00
39401;DHT22;54391;50.000;7.360;2023-07-13T10:27:43;24.10;1.00
39401;DHT22;54391;50.000;7.360;2023-07-13T10:30:14;24.50;1.00
39401;DHT22;54391;50.000;7.360;2023-07-13T10:32:45;24.70;1.00
39401;DHT22;54391;50.000;7.360;2023-07-13T10:35:14;24.50;1.00
39401;DHT22;54391;50.000;7.360;2023-07-13T10:37:47;23.50;1.00
39401;DHT22;54391;50.000;7.360;2023-07-13T10:40:19;23.40;1.00
39401;DHT22;54391;50.000;7.360;2023-07-13T10:42:51;23.10;1.00
39401;DHT22;54391;50.000;7.360;2023-07-13T10:45:21;22.70;1.00
39401;DHT22;54391;50.000;7.360;2023-07-13T10:47:52;22.70;1.00
39401;DHT22;54391;50.000;7.360;2023-07-13T10:50:24;22.90;1.00
39401;DHT22;54391;50.000;7.360;2023-07-13T10:52:53;23.00;1.00
39401;DHT22;54391;50.000;7.360;2023-07-13T10:55:35;23.10;1.00
39401;DHT22;54391;50.000;7.360;2023-07-13T10:58:12;22.80;1.00
39401;DHT22;54391;50.000;7.360;2023-07-13T11:00:51;22.50;1.00
39401;DHT22;54391;50.000;7.360;2023-07-13T11:03:22;22.40;1.00
39401;DHT22;54391;50.000;7.360;2023-07-13T11:06:07;22.60;1.00
39401;DHT22;54391;50.000;7.360;2023-07-13T11:08:36;23.50;1.00
39401;DHT22;54391;50.000;7.360;2023-07-13T11:11:37;23.10;1.00
39401;DHT22;54391;50.000;7.360;2023-07-13T11:14:25;23.30;1.00
39401;DHT22;54391;50.000;7.360;2023-07-13T11:16:52;24.50;1.00
39401;DHT22;54391;50.000;7.360;2023-07-13T11:19:52;24.50;1.00
39401;DHT22;54391;50.000;7.360;2023-07-13T11:22:25;24.10;1.00
39401;DHT22;54391;50.000;7.360;2023-07-13T11:24:57;24.30;1.00
39401;DHT22;54391;50.000;7.360;2023-07-13T11:27:43;23.80;1.00
39401;DHT22;54391;50.000;7.360;2023-07-13T11:30:31;23.30;1.00
39401;DHT22;54391;50.000;7.360;2023-07-13T11:33:12;23.40;1.00
39401;DHT22;54391;50.000;7.360;2023-07-13T11:35:53;23.30;1.00
39401;DHT22;54391;50.000;7.360;2023-07-13T11:38:31;22.80;1.00
39401;DHT22;54391;50.000;7.360;2023-07-13T11:41:02;22.90;1.00
39401;DHT22;54391;50.000;7.360;2023-07-13T11:43:30;22.80;1.00
39401;DHT22;54391;50.000;7.360;2023-07-13T11:46:13;22.30;1.00
39401;DHT22;54391;50.000;7.360;2023-07-13T11:48:40;22.30;1.00
39401;DHT22;54391;50.000;7.360;2023-07-13T11:51:17;22.30;1.00
39401;DHT22;54391;50.000;7.360;2023-07-13T11:53:48;22.50;1.00
39401;DHT22;54391;50.000;7.360;2023-07-13T11:58:43;22.00;1.00
39401;DHT22;54391;50.000;7.360;2023-07-13T12:01:19;21.70;1.00
39401;DHT22;54391;50.000;7.360;2023-07-13T12:03:48;21.70;1.00
39401;DHT22;54391;50.000;7.360;2023-07-13T12:06:26;22.10;1.00
39401;DHT22;54391;50.000;7.360;2023-07-13T12:08:58;22.20;1.00
39401;DHT22;54391;50.000;7.360;2023-07-13T12:11:27;22.40;1.00
39401;DHT22;54391;50.000;7.360;2023-07-13T12:16:27;22.60;1.00
39401;DHT22;54391;50.000;7.360;2023-07-13T12:18:56;22.50;1.00
39401;DHT22;54391;50.000;7.360;2023-07-13T12:21:30;22.00;1.00
39401;DHT22;54391;50.000;7.360;2023-07-13T12:23:58;21.60;1.00
39401;DHT22;54391;50.000;7.360;2023-07-13T12:26:28;21.50;1.00
39401;DHT22;54391;50.000;7.360;2023-07-13T12:28:58;21.50;1.00
39401;DHT22;54391;50.000;7.360;2023-07-13T12:31:33;21.40;1.00
39401;DHT22;54391;50.000;7.360;2023-07-13T12:34:02;21.40;1.00
39401;DHT22;54391;50.000;7.360;2023-07-13T12:36:33;21.40;1.00
39401;DHT22;54391;50.000;7.360;2023-07-13T12:39:04;21.10;1.00
39401;DHT22;54391;50.000;7.360;2023-07-13T12:41:34;20.80;1.00
39401;DHT22;54391;50.000;7.360;2023-07-13T12:46:29;20.70;1.00
39401;DHT22;54391;50.000;7.360;2023-07-13T12:48:57;20.50;1.00
39401;DHT22;54391;50.000;7.360;2023-07-13T12:51:27;20.50;1.00
39401;DHT22;54391;50.000;7.360;2023-07-13T12:54:05;20.60;1.00
39401;DHT22;54391;50.000;7.360;2023-07-13T12:56:33;20.60;1.00
39401;DHT22;54391;50.000;7.360;2023-07-13T12:59:03;20.60;1.00
39401;DHT22;54391;50.000;7.360;2023-07-13T13:01:34;20.70;1.00
39401;DHT22;54391;50.000;7.360;2023-07-13T13:04:03;20.50;1.00
39401;DHT22;54391;50.000;7.360;2023-07-13T13:06:32;20.60;1.00
39401;DHT22;54391;50.000;7.360;2023-07-13T13:09:03;20.70;1.00
39401;DHT22;54391;50.000;7.360;2023-07-13T13:11:36;20.80;1.00
39401;DHT22;54391;50.000;7.360;2023-07-13T13:16:32;20.70;1.00
39401;DHT22;54391;50.000;7.360;2023-07-13T13:19:05;20.70;1.00
39401;DHT22;54391;50.000;7.360;2023-07-13T13:21:38;20.80;1.00
39401;DHT22;54391;50.000;7.360;2023-07-13T13:24:11;21.00;1.00
39401;DHT22;54391;50.000;7.360;2023-07-13T13:26:39;21.00;1.00
39401;DHT22;54391;50.000;7.360;2023-07-13T13:29:12;23.00;1.00
39401;DHT22;54391;50.000;7.360;2023-07-13T13:31:40;21.70;1.00
39401;DHT22;54391;50.000;7.360;2023-07-13T13:34:09;21.90;1.00
39401;DHT22;54391;50.000;7.360;2023-07-13T13:36:37;21.80;1.00
39401;DHT22;54391;50.000;7.360;2023-07-13T13:39:10;21.90;1.00
39401;DHT22;54391;50.000;7.360;2023-07-13T13:41:42;21.70;1.00
39401;DHT22;54391;50.000;7.360;2023-07-13T13:44:10;21.80;1.00
39401;DHT22;54391;50.000;7.360;2023-07-13T13:46:37;21.60;1.00
39401;DHT22;54391;50.000;7.360;2023-07-13T13:49:04;21.80;1.00
39401;DHT22;54391;50.000;7.360;2023-07-13T13:53:59;21.90;1.00
39401;DHT22;54391;50.000;7.360;2023-07-13T14:01:23;21.50;1.00
39401;DHT22;54391;50.000;7.360;2023-07-13T14:03:51;21.20;1.00
39401;DHT22;54391;50.000;7.360;2023-07-13T14:06:18;21.20;1.00
39401;DHT22;54391;50.000;7.360;2023-07-13T14:11:15;21.20;1.00
39401;DHT22;54391;50.000;7.360;2023-07-13T14:13:47;21.30;1.00
39401;DHT22;54391;50.000;7.360;2023-07-13T14:16:17;21.40;1.00
39401;DHT22;54391;50.000;7.360;2023-07-13T14:18:44;21.60;1.00
39401;DHT22;54391;50.000;7.360;2023-07-13T14:21:13;21.70;1.00
39401;DHT22;54391;50.000;7.360;2023-07-13T14:23:41;21.90;1.00
39401;DHT22;54391;50.000;7.360;2023-07-13T14:26:12;22.20;1.00
39401;DHT22;54391;50.000;7.360;2023-07-13T14:28:42;22.20;1.00
39401;DHT22;54391;50.000;7.360;2023-07-13T14:31:12;22.30;1.00
39401;DHT22;54391;50.000;7.360;2023-07-13T14:33:39;22.20;1.00
39401;DHT22;54391;50.000;7.360;2023-07-13T14:36:21;22.00;1.00
39401;DHT22;54391;50.000;7.360;2023-07-13T14:43:45;22.20;1.00
39401;DHT22;54391;50.000;7.360;2023-07-13T14:46:25;22.30;1.00
39401;DHT22;54391;50.000;7.360;2023-07-13T14:49:00;22.10;1.00
39401;DHT22;54391;50.000;7.360;2023-07-13T14:53:55;21.90;1.00
39401;DHT22;54391;50.000;7.360;2023-07-13T14:56:23;21.90;1.00
39401;DHT22;54391;50.000;7.360;2023-07-13T15:01:20;21.80;1.00
39401;DHT22;54391;50.000;7.360;2023-07-13T15:03:49;21.90;1.00
39401;DHT22;54391;50.000;7.360;2023-07-13T15:06:17;21.80;1.00
39401;DHT22;54391;50.000;7.360;2023-07-13T15:11:12;22.00;1.00
39401;DHT22;54391;50.000;7.360;2023-07-13T15:13:40;21.90;1.00
39401;DHT22;54391;50.000;7.360;2023-07-13T15:16:18;21.70;1.00
39401;DHT22;54391;50.000;7.360;2023-07-13T15:18:47;21.90;1.00
39401;DHT22;54391;50.000;7.360;2023-07-13T15:21:18;22.00;1.00
39401;DHT22;54391;50.000;7.360;2023-07-13T15:23:46;22.20;1.00
39401;DHT22;54391;50.000;7.360;2023-07-13T15:26:13;22.20;1.00
39401;DHT22;54391;50.000;7.360;2023-07-13T15:28:41;22.30;1.00
39401;DHT22;54391;50.000;7.360;2023-07-13T15:31:18;22.40;1.00
39401;DHT22;54391;50.000;7.360;2023-07-13T15:33:48;22.10;1.00
39401;DHT22;54391;50.000;7.360;2023-07-13T15:36:16;22.10;1.00
39401;DHT22;54391;50.000;7.360;2023-07-13T15:38:44;22.10;1.00
39401;DHT22;54391;50.000;7.360;2023-07-13T15:41:20;22.00;1.00
39401;DHT22;54391;50.000;7.360;2023-07-13T15:43:49;22.00;1.00
39401;DHT22;54391;50.000;7.360;2023-07-13T15:51:20;21.80;1.00
39401;DHT22;54391;50.000;7.360;2023-07-13T15:56:19;21.80;1.00
39401;DHT22;54391;50.000;7.360;2023-07-13T15:58:47;21.80;1.00
39401;DHT22;54391;50.000;7.360;2023-07-13T16:01:15;21.70;1.00
39401;DHT22;54391;50.000;7.360;2023-07-13T16:03:43;21.80;1.00
39401;DHT22;54391;50.000;7.360;2023-07-13T16:06:16;21.90;1.00
39401;DHT22;54391;50.000;7.360;2023-07-13T16:08:45;21.80;1.00
39401;DHT22;54391;50.000;7.360;2023-07-13T16:11:17;21.80;1.00
39401;DHT22;54391;50.000;7.360;2023-07-13T16:13:45;21.80;1.00
39401;DHT22;54391;50.000;7.360;2023-07-13T16:16:13;21.90;1.00
39401;DHT22;54391;50.000;7.360;2023-07-13T16:18:40;21.90;1.00
39401;DHT22;54391;50.000;7.360;2023-07-13T16:21:11;22.00;1.00
39401;DHT22;54391;50.000;7.360;2023-07-13T16:23:41;21.90;1.00
39401;DHT22;54391;50.000;7.360;2023-07-13T16:26:27;21.90;1.00
39401;DHT22;54391;50.000;7.360;2023-07-13T16:28:58;21.80;1.00
39401;DHT22;54391;50.000;7.360;2023-07-13T16:31:31;21.60;1.00
39401;DHT22;54391;50.000;7.360;2023-07-13T16:38:55;21.40;1.00
39401;DHT22;54391;50.000;7.360;2023-07-13T16:43:50;21.50;1.00
39401;DHT22;54391;50.000;7.360;2023-07-13T16:46:21;21.40;1.00
39401;DHT22;54391;50.000;7.360;2023-07-13T16:48:49;21.50;1.00
39401;DHT22;54391;50.000;7.360;2023-07-13T16:51:16;21.40;1.00
39401;DHT22;54391;50.000;7.360;2023-07-13T16:53:43;21.40;1.00
39401;DHT22;54391;50.000;7.360;2023-07-13T16:56:16;21.30;1.00
39401;DHT22;54391;50.000;7.360;2023-07-13T16:58:44;21.20;1.00
39401;DHT22;54391;50.000;7.360;2023-07-13T17:01:12;21.20;1.00
39401;DHT22;54391;50.000;7.360;2023-07-13T17:06:20;21.30;1.00
39401;DHT22;54391;50.000;7.360;2023-07-13T17:08:50;21.30;1.00
39401;DHT22;54391;50.000;7.360;2023-07-13T17:11:21;21.40;1.00
39401;DHT22;54391;50.000;7.360;2023-07-13T17:13:53;21.40;1.00
39401;DHT22;54391;50.000;7.360;2023-07-13T17:16:21;21.50;1.00
39401;DHT22;54391;50.000;7.360;2023-07-13T17:21:17;21.50;1.00
39401;DHT22;54391;50.000;7.360;2023-07-13T17:23:45;21.50;1.00
39401;DHT22;54391;50.000;7.360;2023-07-13T17:31:12;21.50;1.00
39401;DHT22;54391;50.000;7.360;2023-07-13T17:33:44;21.50;1.00
39401;DHT22;54391;50.000;7.360;2023-07-13T17:36:14;21.50;1.00
39401;DHT22;54391;50.000;7.360;2023-07-13T17:38:43;21.50;1.00
39401;DHT22;54391;50.000;7.360;2023-07-13T17:41:13;21.60;1.00
39401;DHT22;54391;50.000;7.360;2023-07-13T17:43:43;21.40;1.00
39401;DHT22;54391;50.000;7.360;2023-07-13T17:46:13;21.30;1.00
39401;DHT22;54391;50.000;7.360;2023-07-13T17:48:43;21.30;1.00
39401;DHT22;54391;50.000;7.360;2023-07-13T17:51:13;21.30;1.00
39401;DHT22;54391;50.000;7.360;2023-07-13T17:53:41;21.30;1.00
39401;DHT22;54391;50.000;7.360;2023-07-13T17:56:09;21.30;1.00
39401;DHT22;54391;50.000;7.360;2023-07-13T18:01:08;21.10;1.00
39401;DHT22;54391;50.000;7.360;2023-07-13T18:03:39;21.00;1.00
39401;DHT22;54391;50.000;7.360;2023-07-13T18:06:13;21.00;1.00
39401;DHT22;54391;50.000;7.360;2023-07-13T18:08:45;20.90;1.00
39401;DHT22;54391;50.000;7.360;2023-07-13T18:16:14;20.90;1.00
39401;DHT22;54391;50.000;7.360;2023-07-13T18:18:42;20.80;1.00
39401;DHT22;54391;50.000;7.360;2023-07-13T18:21:10;20.80;1.00
39401;DHT22;54391;50.000;7.360;2023-07-13T18:23:37;20.80;1.00
39401;DHT22;54391;50.000;7.360;2023-07-13T18:26:09;20.70;1.00
39401;DHT22;54391;50.000;7.360;2023-07-13T18:28:36;20.70;1.00
39401;DHT22;54391;50.000;7.360;2023-07-13T18:31:11;20.60;1.00
39401;DHT22;54391;50.000;7.360;2023-07-13T18:33:41;20.50;1.00
39401;DHT22;54391;50.000;7.360;2023-07-13T18:36:13;20.50;1.00
39401;DHT22;54391;50.000;7.360;2023-07-13T18:38:41;20.40;1.00
39401;DHT22;54391;50.000;7.360;2023-07-13T18:46:12;20.20;1.00
39401;DHT22;54391;50.000;7.360;2023-07-13T19:01:02;20.00;1.00
39401;DHT22;54391;50.000;7.360;2023-07-13T19:06:04;20.00;1.00
39401;DHT22;54391;50.000;7.360;2023-07-13T19:08:32;19.90;1.00
39401;DHT22;54391;50.000;7.360;2023-07-13T19:13:28;19.90;1.00
39401;DHT22;54391;50.000;7.360;2023-07-13T19:15:59;19.80;1.00
39401;DHT22;54391;50.000;7.360;2023-07-13T19:18:26;19.80;1.00
39401;DHT22;54391;50.000;7.360;2023-07-13T19:20:56;19.80;1.00
39401;DHT22;54391;50.000;7.360;2023-07-13T19:26:03;19.80;1.00
39401;DHT22;54391;50.000;7.360;2023-07-13T19:28:36;19.70;1.00
39401;DHT22;54391;50.000;7.360;2023-07-13T19:31:08;19.70;1.00
39401;DHT22;54391;50.000;7.360;2023-07-13T19:41:12;19.50;1.00
39401;DHT22;54391;50.000;7.360;2023-07-13T19:46:24;19.50;1.00
39401;DHT22;54391;50.000;7.360;2023-07-13T19:51:20;19.50;1.00
39401;DHT22;54391;50.000;7.360;2023-07-13T19:53:51;19.50;1.00
39401;DHT22;54391;50.000;7.360;2023-07-13T20:06:27;19.40;1.00
39401;DHT22;54391;50.000;7.360;2023-07-13T20:08:57;19.40;1.00
39401;DHT22;54391;50.000;7.360;2023-07-13T20:16:20;19.30;1.00
39401;DHT22;54391;50.000;7.360;2023-07-13T20:18:48;19.20;1.00
39401;DHT22;54391;50.000;7.360;2023-07-13T20:23:43;19.20;1.00
39401;DHT22;54391;50.000;7.360;2023-07-13T20:31:12;19.00;1.00
39401;DHT22;54391;50.000;7.360;2023-07-13T20:36:11;18.90;1.00
39401;DHT22;54391;50.000;7.360;2023-07-13T20:38:39;18.80;1.00
39401;DHT22;54391;50.000;7.360;2023-07-13T20:41:11;18.80;1.00
39401;DHT22;54391;50.000;7.360;2023-07-13T20:46:13;18.80;1.00
39401;DHT22;54391;50.000;7.360;2023-07-13T20:48:43;18.70;1.00
39401;DHT22;54391;50.000;7.360;2023-07-13T20:51:14;18.60;1.00
39401;DHT22;54391;50.000;7.360;2023-07-13T20:56:12;18.50;1.00
39401;DHT22;54391;50.000;7.360;2023-07-13T20:58:40;18.40;1.00
39401;DHT22;54391;50.000;7.360;2023-07-13T21:01:13;18.40;1.00
39401;DHT22;54391;50.000;7.360;2023-07-13T21:06:14;18.20;1.00
39401;DHT22;54391;50.000;7.360;2023-07-13T21:16:15;17.90;1.00
39401;DHT22;54391;50.000;7.360;2023-07-13T21:18:42;17.80;1.00
39401;DHT22;54391;50.000;7.360;2023-07-13T21:21:12;17.80;1.00
39401;DHT22;54391;50.000;7.360;2023-07-13T21:23:40;17.70;1.00
39401;DHT22;54391;50.000;7.360;2023-07-13T21:26:08;17.70;1.00
39401;DHT22;54391;50.000;7.360;2023-07-13T21:28:39;17.60;1.00
39401;DHT22;54391;50.000;7.360;2023-07-13T21:31:08;17.60;1.00
39401;DHT22;54391;50.000;7.360;2023-07-13T21:38:35;17.40;1.00
39401;DHT22;54391;50.000;7.360;2023-07-13T21:41:07;17.40;1.00
39401;DHT22;54391;50.000;7.360;2023-07-13T21:46:10;17.40;1.00
39401;DHT22;54391;50.000;7.360;2023-07-13T21:48:38;17.60;1.00
39401;DHT22;54391;50.000;7.360;2023-07-13T21:51:14;17.60;1.00
39401;DHT22;54391;50.000;7.360;2023-07-13T21:53:43;17.50;1.00